Terminal Aerodrome Forecast
Issued by NWS Blacksburg, VA

Current Version | Previous Version | Text Only | Print | Product List | Glossary Off
Versions: 1 2 3 4 5 6 7 8 9 10 11 12 13 14 15 16 17 18 19 20

000
FTUS41 KRNK 261121
TAFBLF
TAF
KBLF 261121Z 2612/2712 25007KT P6SM SCT050
     FM261500 27010G22KT P6SM SCT060
     FM262100 26010KT P6SM VCTS BKN050CB
      TEMPO 2622/2702 3SM -TSRA OVC040CB
     FM270300 27007KT P6SM OVC060=

USA.gov is the U.S. government's official web portal to all federal, state and local government web resources and services.